Time,TemperatureF,DewpointF,PressureIn,WindDirection,WindDirectionDegrees,WindSpeedMPH,WindSpeedGustMPH,Humidity,HourlyPrecipIn,Conditions,Clouds,dailyrainin,SoftwareType,DateUTC
2013-06-08 00:00:00,57.3,49.1,29.85,NW,315,0.0,1.0,74,0.00,CLR,,0.00,WeatherDisplay:10.37,2013-06-08 05:00:00,
2013-06-08 00:05:00,57.0,48.8,29.84,NW,315,0.0,0.0,74,0.00,CLR,,0.00,WeatherDisplay:10.37,2013-06-08 05:05:00,
2013-06-08 00:10:00,56.7,48.9,29.84,NW,315,0.0,2.0,75,0.00,CLR,,0.00,WeatherDisplay:10.37,2013-06-08 05:10:00,
2013-06-08 00:15:00,56.5,48.7,29.84,NW,315,0.0,2.0,75,0.00,CLR,,0.00,WeatherDisplay:10.37,2013-06-08 05:15:00,
2013-06-08 00:20:00,56.3,48.5,29.84,NW,315,0.0,2.0,75,0.00,CLR,,0.00,WeatherDisplay:10.37,2013-06-08 05:20:00,
2013-06-08 00:25:00,56.0,48.5,29.85,NW,315,0.0,0.0,76,0.00,CLR,,0.00,WeatherDisplay:10.37,2013-06-08 05:25:00,
2013-06-08 00:30:00,55.9,48.4,29.84,NW,315,0.0,2.0,76,0.00,CLR,,0.00,WeatherDisplay:10.37,2013-06-08 05:30:00,
2013-06-08 00:40:00,55.7,48.2,29.84,NW,315,0.0,2.0,76,0.00,CLR,,0.00,WeatherDisplay:10.37,2013-06-08 05:40:00,
2013-06-08 00:45:00,55.4,48.0,29.85,NW,315,0.0,2.0,76,0.00,CLR,,0.00,WeatherDisplay:10.37,2013-06-08 05:45:00,
2013-06-08 00:50:00,55.3,48.2,29.85,NW,315,0.0,2.0,77,0.00,CLR,,0.00,WeatherDisplay:10.37,2013-06-08 05:50:00,
2013-06-08 00:55:00,55.1,47.7,29.85,NW,315,0.0,0.0,76,0.00,CLR,,0.00,WeatherDisplay:10.37,2013-06-08 05:55:00,
2013-06-08 01:00:00,55.1,48.0,29.85,NW,315,0.0,0.0,77,0.00,CLR,,0.00,WeatherDisplay:10.37,2013-06-08 06:00:00,
2013-06-08 01:05:00,54.8,47.7,29.85,NW,315,0.0,2.0,77,0.00,CLR,,0.00,WeatherDisplay:10.37,2013-06-08 06:05:00,
2013-06-08 01:10:00,54.8,47.7,29.85,NW,315,0.0,3.0,77,0.00,CLR,,0.00,WeatherDisplay:10.37,2013-06-08 06:10:00,
2013-06-08 01:15:00,54.7,47.6,29.85,NW,315,0.0,2.0,77,0.00,CLR,,0.00,WeatherDisplay:10.37,2013-06-08 06:15:00,
2013-06-08 01:20:00,54.5,47.4,29.85,NW,315,1.0,5.0,77,0.00,CLR,,0.00,WeatherDisplay:10.37,2013-06-08 06:20:00,
2013-06-08 01:25:00,54.5,47.4,29.84,NW,315,0.0,5.0,77,0.00,CLR,,0.00,WeatherDisplay:10.37,2013-06-08 06:25:00,
2013-06-08 01:30:00,54.5,47.1,29.85,NW,315,0.0,5.0,76,0.00,CLR,,0.00,WeatherDisplay:10.37,2013-06-08 06:30:00,
2013-06-08 01:35:00,54.5,46.7,29.84,NW,315,1.0,3.0,75,0.00,CLR,,0.00,WeatherDisplay:10.37,2013-06-08 06:35:00,
2013-06-08 01:40:00,54.5,46.7,29.84,NW,315,0.0,2.0,75,0.00,CLR,,0.00,WeatherDisplay:10.37,2013-06-08 06:40:00,
2013-06-08 01:45:00,54.4,46.7,29.84,NW,315,1.0,3.0,75,0.00,CLR,,0.00,WeatherDisplay:10.37,2013-06-08 06:45:00,
2013-06-08 01:50:00,54.4,47.0,29.84,NW,315,0.0,3.0,76,0.00,CLR,,0.00,WeatherDisplay:10.37,2013-06-08 06:50:00,
2013-06-08 01:55:00,54.2,46.8,29.84,NW,315,0.0,5.0,76,0.00,CLR,,0.00,WeatherDisplay:10.37,2013-06-08 06:55:00,
2013-06-08 02:00:00,54.1,46.3,29.85,NW,315,1.0,3.0,75,0.00,CLR,,0.00,WeatherDisplay:10.37,2013-06-08 07:00:00,
2013-06-08 02:05:00,54.1,46.7,29.85,NW,315,0.0,3.0,76,0.00,CLR,,0.00,WeatherDisplay:10.37,2013-06-08 07:05:00,
2013-06-08 02:10:00,53.9,46.5,29.85,NW,315,0.0,1.0,76,0.00,CLR,,0.00,WeatherDisplay:10.37,2013-06-08 07:10:00,
2013-06-08 02:15:00,53.8,46.4,29.85,NW,315,0.0,0.0,76,0.00,CLR,,0.00,WeatherDisplay:10.37,2013-06-08 07:15:00,
2013-06-08 02:20:00,53.6,46.2,29.85,NW,315,0.0,0.0,76,0.00,CLR,,0.00,WeatherDisplay:10.37,2013-06-08 07:20:00,
2013-06-08 02:25:00,53.5,46.5,29.85,NW,315,0.0,0.0,77,0.00,CLR,,0.00,WeatherDisplay:10.37,2013-06-08 07:25:00,
2013-06-08 02:30:00,53.3,46.3,29.85,NW,315,0.0,0.0,77,0.00,CLR,,0.00,WeatherDisplay:10.37,2013-06-08 07:30:00,
2013-06-08 02:35:00,53.2,46.5,29.85,NW,315,0.0,0.0,78,0.00,CLR,,0.00,WeatherDisplay:10.37,2013-06-08 07:35:00,
2013-06-08 02:40:00,52.9,45.9,29.86,NW,315,1.0,5.0,77,0.00,CLR,,0.00,WeatherDisplay:10.37,2013-06-08 07:40:00,
2013-06-08 02:45:00,52.9,45.9,29.85,NW,315,0.0,2.0,77,0.00,CLR,,0.00,WeatherDisplay:10.37,2013-06-08 07:45:00,
2013-06-08 02:50:00,52.9,45.9,29.85,NW,315,0.0,2.0,77,0.00,CLR,,0.00,WeatherDisplay:10.37,2013-06-08 07:50:00,
2013-06-08 02:55:00,52.9,45.9,29.85,NW,315,0.0,2.0,77,0.00,CLR,,0.00,WeatherDisplay:10.37,2013-06-08 07:55:00,
2013-06-08 03:00:00,52.8,45.4,29.86,NW,315,1.0,2.0,76,0.00,CLR,,0.00,WeatherDisplay:10.37,2013-06-08 08:00:00,
2013-06-08 03:05:00,52.8,45.4,29.86,NW,315,0.0,3.0,76,0.00,CLR,,0.00,WeatherDisplay:10.37,2013-06-08 08:05:00,
2013-06-08 03:10:00,52.8,45.8,29.86,NW,315,0.0,2.0,77,0.00,CLR,,0.00,WeatherDisplay:10.37,2013-06-08 08:10:00,
2013-06-08 03:15:00,52.6,45.6,29.86,NW,315,0.0,0.0,77,0.00,CLR,,0.00,WeatherDisplay:10.37,2013-06-08 08:15:00,
2013-06-08 03:25:00,52.2,45.5,29.85,NW,315,0.0,0.0,78,0.00,CLR,,0.00,WeatherDisplay:10.37,2013-06-08 08:25:00,
2013-06-08 03:30:00,52.0,45.4,29.85,NW,315,0.0,0.0,78,0.00,CLR,,0.00,WeatherDisplay:10.37,2013-06-08 08:30:00,
2013-06-08 03:40:00,51.6,45.3,29.85,NW,315,0.0,0.0,79,0.00,CLR,,0.00,WeatherDisplay:10.37,2013-06-08 08:40:00,
2013-06-08 03:45:00,51.4,45.1,29.85,NW,315,0.0,0.0,79,0.00,CLR,,0.00,WeatherDisplay:10.37,2013-06-08 08:45:00,
2013-06-08 03:50:00,51.3,45.0,29.85,NW,315,0.0,0.0,79,0.00,CLR,,0.00,WeatherDisplay:10.37,2013-06-08 08:50:00,
2013-06-08 03:55:00,51.1,44.8,29.86,NW,315,0.0,0.0,79,0.00,CLR,,0.00,WeatherDisplay:10.37,2013-06-08 08:55:00,
2013-06-08 04:05:00,50.8,44.9,29.86,NW,315,0.0,0.0,80,0.00,CLR,,0.00,WeatherDisplay:10.37,2013-06-08 09:05:00,
2013-06-08 04:10:00,50.8,44.9,29.86,NW,315,0.0,0.0,80,0.00,CLR,,0.00,WeatherDisplay:10.37,2013-06-08 09:10:00,
2013-06-08 04:15:00,50.7,44.8,29.86,NW,315,0.0,0.0,80,0.00,CLR,,0.00,WeatherDisplay:10.37,2013-06-08 09:15:00,
2013-06-08 04:20:00,50.6,44.7,29.86,NW,315,0.0,0.0,80,0.00,CLR,,0.00,WeatherDisplay:10.37,2013-06-08 09:20:00,
2013-06-08 04:25:00,50.5,44.6,29.86,NW,315,0.0,0.0,80,0.00,CLR,,0.00,WeatherDisplay:10.37,2013-06-08 09:25:00,
2013-06-08 04:30:00,50.4,44.8,29.86,NW,315,0.0,0.0,81,0.00,CLR,,0.00,WeatherDisplay:10.37,2013-06-08 09:30:00,
2013-06-08 04:35:00,50.2,44.6,29.86,NW,315,0.0,0.0,81,0.00,CLR,,0.00,WeatherDisplay:10.37,2013-06-08 09:35:00,
2013-06-08 04:40:00,50.1,44.5,29.86,NW,315,0.0,0.0,81,0.00,CLR,,0.00,WeatherDisplay:10.37,2013-06-08 09:40:00,
2013-06-08 04:45:00,49.9,44.3,29.86,NW,315,0.0,0.0,81,0.00,CLR,,0.00,WeatherDisplay:10.37,2013-06-08 09:45:00,
2013-06-08 04:50:00,49.8,44.5,29.86,NW,315,0.0,0.0,82,0.00,CLR,,0.00,WeatherDisplay:10.37,2013-06-08 09:50:00,
2013-06-08 05:00:00,49.6,44.3,29.86,NW,315,0.0,0.0,82,0.00,CLR,,0.00,WeatherDisplay:10.37,2013-06-08 10:00:00,
2013-06-08 05:05:00,49.5,44.6,29.86,NW,315,0.0,0.0,83,0.00,CLR,,0.00,WeatherDisplay:10.37,2013-06-08 10:05:00,
2013-06-08 05:10:00,49.4,44.5,29.86,NW,315,0.0,0.0,83,0.00,CLR,,0.00,WeatherDisplay:10.37,2013-06-08 10:10:00,
2013-06-08 05:15:00,49.2,44.3,29.86,NW,315,0.0,0.0,83,0.00,CLR,,0.00,WeatherDisplay:10.37,2013-06-08 10:15:00,
2013-06-08 05:20:00,49.1,44.5,29.86,NW,315,0.0,0.0,84,0.00,CLR,,0.00,WeatherDisplay:10.37,2013-06-08 10:20:00,
2013-06-08 05:25:00,49.1,44.5,29.86,NW,315,0.0,0.0,84,0.00,CLR,,0.00,WeatherDisplay:10.37,2013-06-08 10:25:00,
2013-06-08 05:30:00,49.1,44.5,29.86,NW,315,0.0,0.0,84,0.00,CLR,,0.00,WeatherDisplay:10.37,2013-06-08 10:30:00,
2013-06-08 05:35:00,49.1,44.8,29.87,NW,315,0.0,0.0,85,0.00,CLR,,0.00,WeatherDisplay:10.37,2013-06-08 10:35:00,
2013-06-08 05:40:00,48.9,44.6,29.87,NW,315,0.0,0.0,85,0.00,CLR,,0.00,WeatherDisplay:10.37,2013-06-08 10:40:00,
2013-06-08 05:45:00,49.1,44.8,29.87,NW,315,0.0,2.0,85,0.00,CLR,,0.00,WeatherDisplay:10.37,2013-06-08 10:45:00,
2013-06-08 05:50:00,49.3,45.0,29.88,NW,315,0.0,0.0,85,0.00,CLR,,0.00,WeatherDisplay:10.37,2013-06-08 10:50:00,
2013-06-08 05:55:00,49.4,45.1,29.88,NW,315,0.0,0.0,85,0.00,CLR,,0.00,WeatherDisplay:10.37,2013-06-08 10:55:00,
2013-06-08 06:00:00,49.6,45.3,29.88,NW,315,0.0,2.0,85,0.00,CLR,,0.00,WeatherDisplay:10.37,2013-06-08 11:00:00,
2013-06-08 06:05:00,49.8,45.5,29.88,NW,315,0.0,0.0,85,0.00,CLR,,0.00,WeatherDisplay:10.37,2013-06-08 11:05:00,
2013-06-08 06:10:00,49.9,45.6,29.88,NW,315,0.0,0.0,85,0.00,CLR,,0.00,WeatherDisplay:10.37,2013-06-08 11:10:00,
2013-06-08 06:20:00,50.2,45.9,29.89,NW,315,0.0,0.0,85,0.00,CLR,,0.00,WeatherDisplay:10.37,2013-06-08 11:20:00,
2013-06-08 06:25:00,50.4,46.1,29.89,NW,315,0.0,0.0,85,0.00,CLR,,0.00,WeatherDisplay:10.37,2013-06-08 11:25:00,
2013-06-08 06:30:00,50.5,45.8,29.89,NW,315,0.0,0.0,84,0.00,CLR,,0.00,WeatherDisplay:10.37,2013-06-08 11:30:00,
2013-06-08 06:35:00,51.0,46.3,29.89,NW,315,0.0,2.0,84,0.00,CLR,,0.00,WeatherDisplay:10.37,2013-06-08 11:35:00,
2013-06-08 06:40:00,51.3,46.3,29.89,NW,315,0.0,2.0,83,0.00,CLR,,0.00,WeatherDisplay:10.37,2013-06-08 11:40:00,
2013-06-08 06:45:00,51.6,46.3,29.89,NW,315,0.0,0.0,82,0.00,CLR,,0.00,WeatherDisplay:10.37,2013-06-08 11:45:00,
2013-06-08 06:50:00,51.9,46.6,29.89,NW,315,0.0,2.0,82,0.00,CLR,,0.00,WeatherDisplay:10.37,2013-06-08 11:50:00,
2013-06-08 06:55:00,52.0,46.7,29.89,NW,315,0.0,0.0,82,0.00,CLR,,0.00,WeatherDisplay:10.37,2013-06-08 11:55:00,
2013-06-08 07:00:00,52.3,46.9,29.89,NW,315,0.0,3.0,82,0.00,CLR,,0.00,WeatherDisplay:10.37,2013-06-08 12:00:00,
2013-06-08 07:05:00,52.6,46.6,29.90,NW,322,3.0,6.0,80,0.00,CLR,,0.00,WeatherDisplay:10.37,2013-06-08 12:05:00,
2013-06-08 07:10:00,53.1,46.8,29.90,NNW,327,2.0,5.0,79,0.00,CLR,,0.00,WeatherDisplay:10.37,2013-06-08 12:10:00,
2013-06-08 07:15:00,53.4,47.0,29.90,NNW,328,2.0,3.0,79,0.00,CLR,,0.00,WeatherDisplay:10.37,2013-06-08 12:15:00,
2013-06-08 07:20:00,53.7,47.4,29.90,NNW,328,1.0,3.0,79,0.00,CLR,,0.00,WeatherDisplay:10.37,2013-06-08 12:20:00,
2013-06-08 07:25:00,54.1,47.4,29.90,NNW,328,1.0,5.0,78,0.00,CLR,,0.00,WeatherDisplay:10.37,2013-06-08 12:25:00,
2013-06-08 07:30:00,54.5,47.8,29.90,NNW,328,0.0,2.0,78,0.00,CLR,,0.00,WeatherDisplay:10.37,2013-06-08 12:30:00,
2013-06-08 07:35:00,55.0,47.9,29.90,NNW,328,0.0,3.0,77,0.00,CLR,,0.00,WeatherDisplay:10.37,2013-06-08 12:35:00,
2013-06-08 07:40:00,55.4,47.9,29.91,NNW,328,1.0,3.0,76,0.00,CLR,,0.00,WeatherDisplay:10.37,2013-06-08 12:40:00,
2013-06-08 07:45:00,55.7,48.2,29.91,NNW,328,0.0,3.0,76,0.00,CLR,,0.00,WeatherDisplay:10.37,2013-06-08 12:45:00,
2013-06-08 07:50:00,56.0,48.2,29.91,NNW,328,1.0,5.0,75,0.00,CLR,,0.00,WeatherDisplay:10.37,2013-06-08 12:50:00,
2013-06-08 07:55:00,56.3,48.8,29.91,NNW,328,2.0,3.0,76,0.00,CLR,,0.00,WeatherDisplay:10.37,2013-06-08 12:55:00,
2013-06-08 08:00:00,56.7,48.5,29.91,NNW,328,1.0,6.0,74,0.00,CLR,,0.00,WeatherDisplay:10.37,2013-06-08 13:00:00,
2013-06-08 08:05:00,57.0,48.8,29.92,NNW,328,0.0,3.0,74,0.00,CLR,,0.00,WeatherDisplay:10.37,2013-06-08 13:05:00,
2013-06-08 08:10:00,57.4,49.2,29.92,NNW,328,1.0,3.0,74,0.00,CLR,,0.00,WeatherDisplay:10.37,2013-06-08 13:10:00,
2013-06-08 08:15:00,57.8,49.6,29.92,NNW,328,1.0,5.0,74,0.00,CLR,,0.00,WeatherDisplay:10.37,2013-06-08 13:15:00,
2013-06-08 08:20:00,58.3,50.0,29.92,NNW,328,0.0,3.0,74,0.00,CLR,,0.00,WeatherDisplay:10.37,2013-06-08 13:20:00,
2013-06-08 08:25:00,58.6,50.3,29.92,NNW,328,1.0,3.0,74,0.00,CLR,,0.00,WeatherDisplay:10.37,2013-06-08 13:25:00,
2013-06-08 08:30:00,59.0,50.7,29.91,NNW,328,2.0,5.0,74,0.00,CLR,,0.00,WeatherDisplay:10.37,2013-06-08 13:30:00,
2013-06-08 08:35:00,59.3,50.7,29.92,NNW,328,0.0,3.0,73,0.00,CLR,,0.00,WeatherDisplay:10.37,2013-06-08 13:35:00,
2013-06-08 08:40:00,59.8,50.8,29.92,NNW,329,3.0,5.0,72,0.00,CLR,,0.00,WeatherDisplay:10.37,2013-06-08 13:40:00,
2013-06-08 08:45:00,60.2,51.5,29.92,NNW,329,0.0,2.0,73,0.00,CLR,,0.00,WeatherDisplay:10.37,2013-06-08 13:45:00,
2013-06-08 08:50:00,60.7,51.6,29.92,NNW,329,3.0,5.0,72,0.00,CLR,,0.00,WeatherDisplay:10.37,2013-06-08 13:50:00,
2013-06-08 08:55:00,61.2,52.1,29.92,NNW,329,0.0,2.0,72,0.00,CLR,,0.00,WeatherDisplay:10.37,2013-06-08 13:55:00,
2013-06-08 09:00:00,61.6,52.4,29.92,NNW,329,0.0,3.0,72,0.00,CLR,,0.00,WeatherDisplay:10.37,2013-06-08 14:00:00,
2013-06-08 09:05:00,62.1,52.6,29.92,North,4,2.0,5.0,71,0.00,CLR,,0.00,WeatherDisplay:10.37,2013-06-08 14:05:00,
2013-06-08 09:10:00,62.6,53.0,29.92,North,5,1.0,3.0,71,0.00,CLR,,0.00,WeatherDisplay:10.37,2013-06-08 14:10:00,
2013-06-08 09:15:00,63.1,53.5,29.92,North,5,1.0,3.0,71,0.00,CLR,,0.00,WeatherDisplay:10.37,2013-06-08 14:15:00,
2013-06-08 09:20:00,63.6,53.7,29.91,North,5,1.0,3.0,70,0.00,CLR,,0.00,WeatherDisplay:10.37,2013-06-08 14:20:00,
2013-06-08 09:25:00,64.4,54.0,29.91,North,5,0.0,2.0,69,0.00,CLR,,0.00,WeatherDisplay:10.37,2013-06-08 14:25:00,
2013-06-08 09:30:00,65.3,54.9,29.91,North,5,0.0,2.0,69,0.00,CLR,,0.00,WeatherDisplay:10.37,2013-06-08 14:30:00,
2013-06-08 09:35:00,66.2,54.9,29.90,North,5,0.0,2.0,67,0.00,CLR,,0.00,WeatherDisplay:10.37,2013-06-08 14:35:00,
2013-06-08 09:40:00,66.8,54.7,29.90,NE,40,2.0,5.0,65,0.00,CLR,,0.00,WeatherDisplay:10.37,2013-06-08 14:40:00,
2013-06-08 09:45:00,67.1,55.4,29.90,NE,51,1.0,3.0,66,0.00,CLR,,0.00,WeatherDisplay:10.37,2013-06-08 14:45:00,
2013-06-08 09:55:00,67.4,52.6,29.90,NNE,13,1.0,6.0,59,0.00,CLR,,0.00,WeatherDisplay:10.37,2013-06-08 14:55:00,
2013-06-08 10:00:00,67.6,52.3,29.90,NNW,334,2.0,6.0,58,0.00,CLR,,0.00,WeatherDisplay:10.37,2013-06-08 15:00:00,
2013-06-08 10:05:00,67.8,53.0,29.90,North,5,6.0,6.0,59,0.00,CLR,,0.00,WeatherDisplay:10.37,2013-06-08 15:05:00,
2013-06-08 10:10:00,68.3,51.5,29.90,NNE,19,3.0,6.0,55,0.00,CLR,,0.00,WeatherDisplay:10.37,2013-06-08 15:10:00,
2013-06-08 10:15:00,68.8,53.9,29.90,North,355,5.0,9.0,59,0.00,CLR,,0.00,WeatherDisplay:10.37,2013-06-08 15:15:00,
2013-06-08 10:20:00,69.2,53.3,29.90,North,350,2.0,5.0,57,0.00,CLR,,0.00,WeatherDisplay:10.37,2013-06-08 15:20:00,
2013-06-08 10:25:00,69.6,52.7,29.90,NE,49,3.0,6.0,55,0.00,CLR,,0.00,WeatherDisplay:10.37,2013-06-08 15:25:00,
2013-06-08 10:30:00,69.6,52.2,29.90,NE,55,1.0,5.0,54,0.00,CLR,,0.00,WeatherDisplay:10.37,2013-06-08 15:30:00,
2013-06-08 10:35:00,69.9,52.5,29.90,ENE,77,1.0,3.0,54,0.00,CLR,,0.00,WeatherDisplay:10.37,2013-06-08 15:35:00,
2013-06-08 10:40:00,70.1,50.6,29.90,ENE,64,3.0,5.0,50,0.00,CLR,,0.00,WeatherDisplay:10.37,2013-06-08 15:40:00,
2013-06-08 10:45:00,70.3,51.3,29.90,NE,51,3.0,5.0,51,0.00,CLR,,0.00,WeatherDisplay:10.37,2013-06-08 15:45:00,
2013-06-08 10:50:00,70.4,50.3,29.90,NE,52,1.0,5.0,49,0.00,CLR,,0.00,WeatherDisplay:10.37,2013-06-08 15:50:00,
2013-06-08 10:55:00,71.1,50.9,29.90,NE,52,0.0,5.0,49,0.00,CLR,,0.00,WeatherDisplay:10.37,2013-06-08 15:55:00,
2013-06-08 11:00:00,71.5,51.4,29.90,NE,52,3.0,5.0,49,0.00,CLR,,0.00,WeatherDisplay:10.37,2013-06-08 16:00:00,
2013-06-08 11:05:00,71.8,51.0,29.90,NE,42,2.0,6.0,48,0.00,CLR,,0.00,WeatherDisplay:10.37,2013-06-08 16:05:00,
2013-06-08 11:10:00,72.1,51.9,29.90,North,8,2.0,6.0,49,0.00,CLR,,0.00,WeatherDisplay:10.37,2013-06-08 16:10:00,
2013-06-08 11:15:00,72.3,52.1,29.90,North,353,0.0,5.0,49,0.00,CLR,,0.00,WeatherDisplay:10.37,2013-06-08 16:15:00,
2013-06-08 11:20:00,72.6,51.8,29.90,East,83,6.0,6.0,48,0.00,CLR,,0.00,WeatherDisplay:10.37,2013-06-08 16:20:00,
2013-06-08 11:30:00,73.4,51.4,29.91,SE,126,1.0,3.0,46,0.00,CLR,,0.00,WeatherDisplay:10.37,2013-06-08 16:30:00,
2013-06-08 11:35:00,73.9,50.0,29.91,East,85,0.0,5.0,43,0.00,CLR,,0.00,WeatherDisplay:10.37,2013-06-08 16:35:00,
2013-06-08 11:40:00,74.0,50.1,29.92,NNE,18,3.0,6.0,43,0.00,CLR,,0.00,WeatherDisplay:10.37,2013-06-08 16:40:00,
2013-06-08 11:45:00,74.2,51.5,29.92,North,8,2.0,5.0,45,0.00,CLR,,0.00,WeatherDisplay:10.37,2013-06-08 16:45:00,
2013-06-08 11:50:00,74.0,50.7,29.91,WNW,302,3.0,8.0,44,0.00,CLR,,0.00,WeatherDisplay:10.37,2013-06-08 16:50:00,
2013-06-08 11:55:00,74.0,50.7,29.91,WNW,297,3.0,6.0,44,0.00,CLR,,0.00,WeatherDisplay:10.37,2013-06-08 16:55:00,
2013-06-08 12:00:00,74.2,51.5,29.91,NNW,335,3.0,5.0,45,0.00,CLR,,0.00,WeatherDisplay:10.37,2013-06-08 17:00:00,
2013-06-08 12:05:00,74.6,50.6,29.91,NNE,19,3.0,6.0,43,0.00,CLR,,0.00,WeatherDisplay:10.37,2013-06-08 17:05:00,
2013-06-08 12:10:00,74.9,50.9,29.91,NNE,29,2.0,5.0,43,0.00,CLR,,0.00,WeatherDisplay:10.37,2013-06-08 17:10:00,
2013-06-08 12:15:00,75.0,51.0,29.91,NE,47,5.0,6.0,43,0.00,CLR,,0.00,WeatherDisplay:10.37,2013-06-08 17:15:00,
2013-06-08 12:20:00,74.9,52.7,29.91,ENE,70,1.0,3.0,46,0.00,CLR,,0.00,WeatherDisplay:10.37,2013-06-08 17:20:00,
2013-06-08 12:25:00,75.2,52.9,29.90,SE,137,1.0,3.0,46,0.00,CLR,,0.00,WeatherDisplay:10.37,2013-06-08 17:25:00,
2013-06-08 12:30:00,75.4,52.6,29.90,SE,141,1.0,5.0,45,0.00,CLR,,0.00,WeatherDisplay:10.37,2013-06-08 17:30:00,
2013-06-08 12:35:00,75.4,52.6,29.90,SSE,152,1.0,5.0,45,0.00,CLR,,0.00,WeatherDisplay:10.37,2013-06-08 17:35:00,
2013-06-08 12:40:00,75.6,51.5,29.90,SE,140,1.0,5.0,43,0.00,CLR,,0.00,WeatherDisplay:10.37,2013-06-08 17:40:00,
2013-06-08 12:45:00,75.8,54.1,29.90,SSE,156,1.0,5.0,47,0.00,CLR,,0.00,WeatherDisplay:10.37,2013-06-08 17:45:00,
2013-06-08 12:50:00,76.0,51.9,29.90,West,267,7.0,8.0,43,0.00,CLR,,0.00,WeatherDisplay:10.37,2013-06-08 17:50:00,
2013-06-08 12:55:00,75.8,52.3,29.90,WNW,292,0.0,8.0,44,0.00,CLR,,0.00,WeatherDisplay:10.37,2013-06-08 17:55:00,
2013-06-08 13:00:00,75.8,52.9,29.90,SSW,213,2.0,5.0,45,0.00,CLR,,0.00,WeatherDisplay:10.37,2013-06-08 18:00:00,
2013-06-08 13:10:00,76.1,55.0,29.89,South,175,1.0,3.0,48,0.00,CLR,,0.00,WeatherDisplay:10.37,2013-06-08 18:10:00,
2013-06-08 13:15:00,76.5,53.0,29.90,SSW,202,2.0,5.0,44,0.00,CLR,,0.00,WeatherDisplay:10.37,2013-06-08 18:15:00,
2013-06-08 13:20:00,76.5,53.0,29.89,South,179,1.0,5.0,44,0.00,CLR,,0.00,WeatherDisplay:10.37,2013-06-08 18:20:00,
2013-06-08 13:25:00,76.7,52.5,29.89,SSE,165,1.0,5.0,43,0.00,CLR,,0.00,WeatherDisplay:10.37,2013-06-08 18:25:00,
2013-06-08 13:30:00,77.0,52.1,29.89,West,278,1.0,8.0,42,0.00,CLR,,0.00,WeatherDisplay:10.37,2013-06-08 18:30:00,
2013-06-08 13:40:00,77.3,54.3,29.89,WNW,298,1.0,8.0,45,0.00,CLR,,0.00,WeatherDisplay:10.37,2013-06-08 18:40:00,
2013-06-08 13:45:00,77.0,54.0,29.89,WSW,242,2.0,5.0,45,0.00,CLR,,0.00,WeatherDisplay:10.37,2013-06-08 18:45:00,
2013-06-08 13:50:00,76.7,51.9,29.89,SSE,151,1.0,3.0,42,0.00,CLR,,0.00,WeatherDisplay:10.37,2013-06-08 18:50:00,
2013-06-08 13:55:00,76.7,52.5,29.89,ESE,112,2.0,5.0,43,0.00,CLR,,0.00,WeatherDisplay:10.37,2013-06-08 18:55:00,
2013-06-08 14:00:00,77.0,52.8,29.89,NE,34,6.0,6.0,43,0.00,CLR,,0.00,WeatherDisplay:10.37,2013-06-08 19:00:00,
2013-06-08 14:05:00,77.6,55.8,29.89,NW,321,0.0,6.0,47,0.00,CLR,,0.00,WeatherDisplay:10.37,2013-06-08 19:05:00,
2013-06-08 14:10:00,77.7,53.4,29.89,WNW,293,6.0,8.0,43,0.00,CLR,,0.00,WeatherDisplay:10.37,2013-06-08 19:10:00,
2013-06-08 14:15:00,77.7,53.4,29.88,WNW,301,3.0,8.0,43,0.00,CLR,,0.00,WeatherDisplay:10.37,2013-06-08 19:15:00,
2013-06-08 14:20:00,77.6,54.0,29.88,WNW,286,3.0,6.0,44,0.00,CLR,,0.00,WeatherDisplay:10.37,2013-06-08 19:20:00,
2013-06-08 14:25:00,77.4,54.4,29.88,SE,137,1.0,3.0,45,0.00,CLR,,0.00,WeatherDisplay:10.37,2013-06-08 19:25:00,
2013-06-08 14:30:00,77.6,54.6,29.88,South,169,1.0,3.0,45,0.00,CLR,,0.00,WeatherDisplay:10.37,2013-06-08 19:30:00,
2013-06-08 14:35:00,77.6,54.6,29.88,SSE,153,0.0,5.0,45,0.00,SCT,,0.00,WeatherDisplay:10.37,2013-06-08 19:35:00,
2013-06-08 14:40:00,77.6,52.7,29.88,ESE,114,3.0,6.0,42,0.00,SCT,,0.00,WeatherDisplay:10.37,2013-06-08 19:40:00,
2013-06-08 14:45:00,77.6,52.0,29.87,SE,131,2.0,6.0,41,0.00,SCT,,0.00,WeatherDisplay:10.37,2013-06-08 19:45:00,
2013-06-08 14:50:00,78.1,52.5,29.87,SSW,209,2.0,5.0,41,0.00,SCT,,0.00,WeatherDisplay:10.37,2013-06-08 19:50:00,
2013-06-08 14:55:00,77.9,51.6,29.87,ESE,112,1.0,8.0,40,0.00,SCT,,0.00,WeatherDisplay:10.37,2013-06-08 19:55:00,
2013-06-08 15:00:00,78.2,55.1,29.87,SSE,147,1.0,6.0,45,0.00,SCT,,0.00,WeatherDisplay:10.37,2013-06-08 20:00:00,
2013-06-08 15:05:00,78.5,53.5,29.87,ENE,69,0.0,6.0,42,0.00,SCT,,0.00,WeatherDisplay:10.37,2013-06-08 20:05:00,
2013-06-08 15:10:00,78.5,52.8,29.87,East,90,0.0,5.0,41,0.00,SCT,,0.00,WeatherDisplay:10.37,2013-06-08 20:10:00,
2013-06-08 15:15:00,78.1,53.1,29.87,SE,143,2.0,5.0,42,0.00,SCT,,0.00,WeatherDisplay:10.37,2013-06-08 20:15:00,
2013-06-08 15:20:00,77.7,54.0,29.88,SSE,163,1.0,3.0,44,0.00,SCT,,0.00,WeatherDisplay:10.37,2013-06-08 20:20:00,
2013-06-08 15:25:00,77.9,53.6,29.88,SSE,162,3.0,5.0,43,0.00,SCT,,0.00,WeatherDisplay:10.37,2013-06-08 20:25:00,
2013-06-08 15:30:00,77.9,53.0,29.88,SSE,156,2.0,5.0,42,0.00,SCT,,0.00,WeatherDisplay:10.37,2013-06-08 20:30:00,
2013-06-08 15:35:00,78.3,53.9,29.87,SSE,148,1.0,3.0,43,0.00,SCT,,0.00,WeatherDisplay:10.37,2013-06-08 20:35:00,
2013-06-08 15:40:00,78.1,51.8,29.88,ESE,123,0.0,6.0,40,0.00,SCT,,0.00,WeatherDisplay:10.37,2013-06-08 20:40:00,
2013-06-08 15:45:00,77.9,52.3,29.87,SE,129,3.0,8.0,41,0.00,SCT,,0.00,WeatherDisplay:10.37,2013-06-08 20:45:00,
2013-06-08 15:50:00,78.1,53.1,29.87,SE,128,5.0,8.0,42,0.00,SCT,,0.00,WeatherDisplay:10.37,2013-06-08 20:50:00,
2013-06-08 15:55:00,78.1,51.8,29.88,SE,126,5.0,9.0,40,0.00,CLR,,0.00,WeatherDisplay:10.37,2013-06-08 20:55:00,
2013-06-08 16:00:00,78.3,52.7,29.88,SE,136,6.0,9.0,41,0.00,CLR,,0.00,WeatherDisplay:10.37,2013-06-08 21:00:00,
2013-06-08 16:05:00,78.4,52.7,29.88,SE,134,0.0,5.0,41,0.00,CLR,,0.00,WeatherDisplay:10.37,2013-06-08 21:05:00,
2013-06-08 16:10:00,78.5,51.5,29.88,ESE,118,1.0,3.0,39,0.00,CLR,,0.00,WeatherDisplay:10.37,2013-06-08 21:10:00,
2013-06-08 16:15:00,78.5,52.2,29.88,ESE,117,1.0,3.0,40,0.00,CLR,,0.00,WeatherDisplay:10.37,2013-06-08 21:15:00,
2013-06-08 16:25:00,78.6,51.6,29.88,ESE,116,3.0,5.0,39,0.00,CLR,,0.00,WeatherDisplay:10.37,2013-06-08 21:25:00,
2013-06-08 16:30:00,79.2,51.4,29.88,ESE,119,0.0,5.0,38,0.00,CLR,,0.00,WeatherDisplay:10.37,2013-06-08 21:30:00,
2013-06-08 16:35:00,79.2,51.4,29.87,SE,127,5.0,8.0,38,0.00,CLR,,0.00,WeatherDisplay:10.37,2013-06-08 21:35:00,
2013-06-08 16:40:00,78.8,52.4,29.88,SE,133,5.0,6.0,40,0.00,CLR,,0.00,WeatherDisplay:10.37,2013-06-08 21:40:00,
2013-06-08 16:45:00,78.8,51.1,29.88,SSE,150,3.0,5.0,38,0.00,CLR,,0.00,WeatherDisplay:10.37,2013-06-08 21:45:00,
2013-06-08 16:50:00,79.0,50.5,29.87,WNW,290,0.0,6.0,37,0.00,CLR,,0.00,WeatherDisplay:10.37,2013-06-08 21:50:00,
2013-06-08 16:55:00,78.8,51.7,29.87,WNW,287,1.0,5.0,39,0.00,CLR,,0.00,WeatherDisplay:10.37,2013-06-08 21:55:00,
2013-06-08 17:00:00,78.6,51.5,29.88,SSE,160,0.0,3.0,39,0.00,CLR,,0.00,WeatherDisplay:10.37,2013-06-08 22:00:00,
2013-06-08 17:05:00,78.1,52.5,29.88,SE,145,0.0,6.0,41,0.00,CLR,,0.00,WeatherDisplay:10.37,2013-06-08 22:05:00,
2013-06-08 17:10:00,78.1,51.8,29.88,SE,139,0.0,3.0,40,0.00,CLR,,0.00,WeatherDisplay:10.37,2013-06-08 22:10:00,
2013-06-08 17:15:00,78.1,52.5,29.88,SE,144,2.0,5.0,41,0.00,CLR,,0.00,WeatherDisplay:10.37,2013-06-08 22:15:00,
2013-06-08 17:20:00,78.1,53.1,29.87,SE,146,1.0,3.0,42,0.00,CLR,,0.00,WeatherDisplay:10.37,2013-06-08 22:20:00,
2013-06-08 17:25:00,78.2,52.6,29.88,SE,143,0.0,3.0,41,0.00,CLR,,0.00,WeatherDisplay:10.37,2013-06-08 22:25:00,
2013-06-08 17:30:00,78.1,51.8,29.88,SE,140,1.0,5.0,40,0.00,CLR,,0.00,WeatherDisplay:10.37,2013-06-08 22:30:00,
2013-06-08 17:35:00,78.3,52.7,29.88,SE,140,0.0,3.0,41,0.00,CLR,,0.00,WeatherDisplay:10.37,2013-06-08 22:35:00,
2013-06-08 17:40:00,78.4,51.4,29.88,SE,140,1.0,3.0,39,0.00,CLR,,0.00,WeatherDisplay:10.37,2013-06-08 22:40:00,
2013-06-08 17:45:00,78.5,52.8,29.88,SE,135,2.0,5.0,41,0.00,CLR,,0.00,WeatherDisplay:10.37,2013-06-08 22:45:00,
2013-06-08 17:50:00,78.2,52.6,29.88,SSE,155,2.0,6.0,41,0.00,CLR,,0.00,WeatherDisplay:10.37,2013-06-08 22:50:00,
2013-06-08 17:55:00,78.1,53.1,29.88,SSE,165,3.0,6.0,42,0.00,SCT,,0.00,WeatherDisplay:10.37,2013-06-08 22:55:00,
2013-06-08 18:00:00,78.1,53.1,29.87,SSE,157,1.0,3.0,42,0.00,SCT,,0.00,WeatherDisplay:10.37,2013-06-08 23:00:00,
2013-06-08 18:05:00,78.1,53.8,29.87,SE,143,0.0,2.0,43,0.00,SCT,,0.00,WeatherDisplay:10.37,2013-06-08 23:05:00,
2013-06-08 18:10:00,77.9,53.6,29.87,SE,145,0.0,3.0,43,0.00,SCT,,0.00,WeatherDisplay:10.37,2013-06-08 23:10:00,
2013-06-08 18:15:00,77.7,53.4,29.87,SSE,150,0.0,2.0,43,0.00,BKN,,0.00,WeatherDisplay:10.37,2013-06-08 23:15:00,
2013-06-08 18:20:00,77.4,53.1,29.87,SSE,151,0.0,0.0,43,0.00,BKN,,0.00,WeatherDisplay:10.37,2013-06-08 23:20:00,
2013-06-08 18:25:00,77.2,53.0,29.88,SSE,151,0.0,0.0,43,0.00,BKN,,0.00,WeatherDisplay:10.37,2013-06-08 23:25:00,
2013-06-08 18:30:00,77.2,53.6,29.88,SSE,151,0.0,2.0,44,0.00,BKN,,0.00,WeatherDisplay:10.37,2013-06-08 23:30:00,
2013-06-08 18:35:00,77.2,53.6,29.88,SSE,151,0.0,2.0,44,0.00,SCT,,0.00,WeatherDisplay:10.37,2013-06-08 23:35:00,
2013-06-08 18:40:00,76.8,53.3,29.88,SSE,151,0.0,3.0,44,0.00,SCT,,0.00,WeatherDisplay:10.37,2013-06-08 23:40:00,
2013-06-08 18:45:00,76.7,53.8,29.88,SSE,151,0.0,2.0,45,0.00,SCT,,0.00,WeatherDisplay:10.37,2013-06-08 23:45:00,
2013-06-08 18:50:00,76.5,53.6,29.89,SE,144,0.0,6.0,45,0.00,SCT,,0.00,WeatherDisplay:10.37,2013-06-08 23:50:00,
2013-06-08 18:55:00,76.5,53.5,29.89,SE,139,0.0,0.0,45,0.00,BKN,,0.00,WeatherDisplay:10.37,2013-06-08 23:55:00,
2013-06-08 19:00:00,76.2,53.3,29.89,SE,136,0.0,2.0,45,0.00,BKN,,0.00,WeatherDisplay:10.37,2013-06-09 00:00:00,
2013-06-08 19:05:00,76.1,53.8,29.88,SE,136,0.0,0.0,46,0.00,BKN,,0.00,WeatherDisplay:10.37,2013-06-09 00:05:00,
2013-06-08 19:10:00,76.1,53.8,29.88,SE,136,0.0,0.0,46,0.00,BKN,,0.00,WeatherDisplay:10.37,2013-06-09 00:10:00,
2013-06-08 19:15:00,76.1,54.4,29.88,SE,136,0.0,0.0,47,0.00,BKN,,0.00,WeatherDisplay:10.37,2013-06-09 00:15:00,
2013-06-08 19:20:00,76.1,53.8,29.88,SE,136,0.0,0.0,46,0.00,BKN,,0.00,WeatherDisplay:10.37,2013-06-09 00:20:00,
2013-06-08 19:25:00,76.0,54.3,29.88,SE,136,0.0,0.0,47,0.00,BKN,,0.00,WeatherDisplay:10.37,2013-06-09 00:25:00,
2013-06-08 19:30:00,75.8,54.7,29.88,SE,136,0.0,0.0,48,0.00,BKN,,0.00,WeatherDisplay:10.37,2013-06-09 00:30:00,
2013-06-08 19:35:00,75.8,55.8,29.88,SE,136,0.0,0.0,50,0.00,BKN,,0.00,WeatherDisplay:10.37,2013-06-09 00:35:00,
2013-06-08 19:40:00,75.5,55.6,29.88,SE,136,0.0,0.0,50,0.00,BKN,,0.00,WeatherDisplay:10.37,2013-06-09 00:40:00,
2013-06-08 19:45:00,75.3,55.9,29.89,SE,136,0.0,0.0,51,0.00,BKN,,0.00,WeatherDisplay:10.37,2013-06-09 00:45:00,
2013-06-08 19:50:00,74.9,55.6,29.89,SE,136,0.0,0.0,51,0.00,BKN,,0.00,WeatherDisplay:10.37,2013-06-09 00:50:00,
2013-06-08 19:55:00,74.6,56.3,29.89,SE,136,0.0,0.0,53,0.00,SCT,,0.00,WeatherDisplay:10.37,2013-06-09 00:55:00,
2013-06-08 20:00:00,74.0,55.8,29.89,SE,136,0.0,0.0,53,0.00,SCT,,0.00,WeatherDisplay:10.37,2013-06-09 01:00:00,
2013-06-08 20:05:00,73.7,56.0,29.89,SE,136,0.0,0.0,54,0.00,SCT,,0.00,WeatherDisplay:10.37,2013-06-09 01:05:00,
2013-06-08 20:10:00,73.2,55.0,29.89,SE,136,0.0,0.0,53,0.00,SCT,,0.00,WeatherDisplay:10.37,2013-06-09 01:10:00,
2013-06-08 20:15:00,73.0,54.9,29.89,SE,136,0.0,0.0,53,0.00,SCT,,0.00,WeatherDisplay:10.37,2013-06-09 01:15:00,
2013-06-08 20:20:00,72.8,55.7,29.89,SE,136,0.0,0.0,55,0.00,SCT,,0.00,WeatherDisplay:10.37,2013-06-09 01:20:00,
2013-06-08 20:25:00,72.5,55.9,29.89,SE,136,0.0,0.0,56,0.00,SCT,,0.00,WeatherDisplay:10.37,2013-06-09 01:25:00,
2013-06-08 20:30:00,72.1,55.5,29.89,SE,136,0.0,0.0,56,0.00,SCT,,0.00,WeatherDisplay:10.37,2013-06-09 01:30:00,
2013-06-08 20:35:00,71.8,55.2,29.89,SE,136,0.0,0.0,56,0.00,SCT,,0.00,WeatherDisplay:10.37,2013-06-09 01:35:00,
2013-06-08 20:40:00,71.3,55.3,29.89,SE,136,0.0,0.0,57,0.00,SCT,,0.00,WeatherDisplay:10.37,2013-06-09 01:40:00,
2013-06-08 20:45:00,70.9,55.4,29.89,SE,136,0.0,0.0,58,0.00,SCT,,0.00,WeatherDisplay:10.37,2013-06-09 01:45:00,
2013-06-08 20:50:00,70.5,55.5,29.89,SE,136,0.0,0.0,59,0.00,SCT,,0.00,WeatherDisplay:10.37,2013-06-09 01:50:00,
2013-06-08 20:55:00,70.2,55.2,29.90,SE,136,0.0,0.0,59,0.00,SCT,,0.00,WeatherDisplay:10.37,2013-06-09 01:55:00,
2013-06-08 21:00:00,69.8,55.3,29.90,SE,136,0.0,0.0,60,0.00,SCT,,0.00,WeatherDisplay:10.37,2013-06-09 02:00:00,
2013-06-08 21:05:00,69.4,55.4,29.90,SE,136,0.0,0.0,61,0.00,SCT,,0.00,WeatherDisplay:10.37,2013-06-09 02:05:00,
2013-06-08 21:10:00,69.1,55.5,29.90,SE,136,0.0,0.0,62,0.00,SCT,,0.00,WeatherDisplay:10.37,2013-06-09 02:10:00,
2013-06-08 21:15:00,68.6,55.5,29.90,SE,136,0.0,0.0,63,0.00,CLR,,0.00,WeatherDisplay:10.37,2013-06-09 02:15:00,
2013-06-08 21:20:00,68.3,55.7,29.90,SE,136,0.0,0.0,64,0.00,CLR,,0.00,WeatherDisplay:10.37,2013-06-09 02:20:00,
2013-06-08 21:30:00,67.8,55.6,29.91,SE,136,0.0,0.0,65,0.00,CLR,,0.00,WeatherDisplay:10.37,2013-06-09 02:30:00,
2013-06-08 21:35:00,67.4,55.6,29.91,SE,136,0.0,0.0,66,0.00,CLR,,0.00,WeatherDisplay:10.37,2013-06-09 02:35:00,
2013-06-08 21:40:00,67.0,55.3,29.91,SE,136,0.0,0.0,66,0.00,CLR,,0.00,WeatherDisplay:10.37,2013-06-09 02:40:00,
2013-06-08 21:45:00,66.6,55.3,29.91,SE,136,0.0,0.0,67,0.00,CLR,,0.00,WeatherDisplay:10.37,2013-06-09 02:45:00,
2013-06-08 21:50:00,66.4,55.5,29.91,SE,136,0.0,2.0,68,0.00,CLR,,0.00,WeatherDisplay:10.37,2013-06-09 02:50:00,
2013-06-08 21:55:00,66.1,55.6,29.91,SE,136,0.0,0.0,69,0.00,CLR,,0.00,WeatherDisplay:10.37,2013-06-09 02:55:00,
2013-06-08 22:00:00,66.0,55.5,29.91,SE,136,0.0,0.0,69,0.00,CLR,,0.00,WeatherDisplay:10.37,2013-06-09 03:00:00,
2013-06-08 22:05:00,65.8,55.3,29.91,SE,136,0.0,0.0,69,0.00,CLR,,0.00,WeatherDisplay:10.37,2013-06-09 03:05:00,
2013-06-08 22:10:00,65.5,55.5,29.91,SE,136,0.0,0.0,70,0.00,CLR,,0.00,WeatherDisplay:10.37,2013-06-09 03:10:00,
2013-06-08 22:15:00,65.3,55.7,29.91,SE,136,0.0,0.0,71,0.00,CLR,,0.00,WeatherDisplay:10.37,2013-06-09 03:15:00,
2013-06-08 22:20:00,65.2,55.6,29.91,SE,136,0.0,0.0,71,0.00,CLR,,0.00,WeatherDisplay:10.37,2013-06-09 03:20:00,
2013-06-08 22:25:00,65.0,55.4,29.91,SE,136,0.0,0.0,71,0.00,CLR,,0.00,WeatherDisplay:10.37,2013-06-09 03:25:00,
2013-06-08 22:30:00,64.8,55.6,29.91,SE,136,0.0,0.0,72,0.00,CLR,,0.00,WeatherDisplay:10.37,2013-06-09 03:30:00,
2013-06-08 22:35:00,64.7,55.5,29.91,SE,136,0.0,0.0,72,0.00,CLR,,0.00,WeatherDisplay:10.37,2013-06-09 03:35:00,
2013-06-08 22:40:00,64.5,55.3,29.91,SE,136,0.0,0.0,72,0.00,CLR,,0.00,WeatherDisplay:10.37,2013-06-09 03:40:00,
2013-06-08 22:45:00,64.3,55.5,29.91,SE,136,0.0,0.0,73,0.00,CLR,,0.00,WeatherDisplay:10.37,2013-06-09 03:45:00,
2013-06-08 22:50:00,64.3,55.8,29.91,SE,136,0.0,0.0,74,0.00,CLR,,0.00,WeatherDisplay:10.37,2013-06-09 03:50:00,
2013-06-08 22:55:00,64.3,55.8,29.91,SE,136,0.0,0.0,74,0.00,CLR,,0.00,WeatherDisplay:10.37,2013-06-09 03:55:00,
2013-06-08 23:00:00,64.2,55.7,29.91,SE,136,0.0,0.0,74,0.00,CLR,,0.00,WeatherDisplay:10.37,2013-06-09 04:00:00,
2013-06-08 23:05:00,64.2,55.7,29.91,SE,136,0.0,0.0,74,0.00,CLR,,0.00,WeatherDisplay:10.37,2013-06-09 04:05:00,
2013-06-08 23:10:00,64.2,55.7,29.91,SE,136,0.0,0.0,74,0.00,CLR,,0.00,WeatherDisplay:10.37,2013-06-09 04:10:00,
2013-06-08 23:15:00,64.2,55.7,29.91,SE,136,0.0,0.0,74,0.00,SCT,,0.00,WeatherDisplay:10.37,2013-06-09 04:15:00,
2013-06-08 23:20:00,64.2,55.7,29.91,SE,136,0.0,0.0,74,0.00,SCT,,0.00,WeatherDisplay:10.37,2013-06-09 04:20:00,
2013-06-08 23:25:00,64.4,56.3,29.91,SE,136,0.0,2.0,75,0.00,SCT,,0.00,WeatherDisplay:10.37,2013-06-09 04:25:00,
2013-06-08 23:30:00,64.5,56.4,29.91,SE,136,0.0,0.0,75,0.00,SCT,,0.00,WeatherDisplay:10.37,2013-06-09 04:30:00,
2013-06-08 23:35:00,64.7,56.6,29.91,SE,136,0.0,0.0,75,0.00,CLR,,0.00,WeatherDisplay:10.37,2013-06-09 04:35:00,
2013-06-08 23:40:00,64.7,56.6,29.92,SE,136,0.0,0.0,75,0.00,CLR,,0.00,WeatherDisplay:10.37,2013-06-09 04:40:00,
2013-06-08 23:45:00,64.7,56.6,29.92,SE,136,0.0,0.0,75,0.00,CLR,,0.00,WeatherDisplay:10.37,2013-06-09 04:45:00,
2013-06-08 23:50:00,64.6,56.4,29.92,SE,136,0.0,0.0,75,0.00,CLR,,0.00,WeatherDisplay:10.37,2013-06-09 04:50:00,
2013-06-08 23:55:00,64.5,56.4,29.92,SE,136,0.0,0.0,75,0.00,CLR,,0.00,WeatherDisplay:10.37,2013-06-09 04:55:00,